Time;durP1;ratioP1;P1;durP2;ratioP2;P2;SDS_P1;SDS_P2;PMS_P1;PMS_P2;Temp;Humidity;BMP_temperature;BMP_pressure;BME280_temperature;BME280_humidity;BME280_pressure;Samples;Min_cycle;Max_cycle;Signal;HPM_P1;HPM_P2
2022/01/16 00:00:37;;;;;;;0.20;0.20;;;1.30;99.90;;;0.81;100.00;101778.53;4929013;29;20207;-78
2022/01/16 00:05:54;;;;;;;0.20;0.20;;;1.50;99.90;;;0.79;100.00;101766.22;4916099;29;20211;-78
2022/01/16 00:08:23;;;;;;;0.20;0.20;;;1.40;99.90;;;0.80;100.00;101762.81;4900950;29;20230;-79
2022/01/16 00:10:51;;;;;;;0.30;0.30;;;1.30;99.90;;;0.76;100.00;101755.59;4919565;29;20210;-79
2022/01/16 00:13:19;;;;;;;0.20;0.20;;;1.20;99.90;;;0.76;100.00;101779.91;4903154;29;20224;-79
2022/01/16 00:15:47;;;;;;;0.63;0.63;;;1.30;99.90;;;0.76;100.00;101766.91;4899525;29;20214;-79
2022/01/16 00:18:40;;;;;;;0.20;0.20;;;1.60;99.90;;;0.77;100.00;101771.31;4898562;29;20227;-79
2022/01/16 00:21:08;;;;;;;0.20;0.20;;;1.30;99.90;;;0.79;100.00;101776.63;4899416;29;20212;-79
2022/01/16 00:23:36;;;;;;;0.20;0.20;;;1.30;99.90;;;0.72;100.00;101780.50;4917035;29;20222;-82
2022/01/16 00:26:04;;;;;;;0.30;0.30;;;1.20;99.90;;;0.70;100.00;101766.47;4916961;29;20213;-79
2022/01/16 00:28:32;;;;;;;0.90;0.90;;;1.70;99.90;;;0.74;100.00;101751.97;4885311;29;20245;-79
2022/01/16 00:31:03;;;;;;;0.20;0.20;;;1.70;99.90;;;0.75;100.00;101758.97;4916190;29;20203;-79
2022/01/16 00:33:32;;;;;;;0.20;0.20;;;1.20;99.90;;;0.74;100.00;101734.66;4916754;29;20227;-79
2022/01/16 00:36:00;;;;;;;0.20;0.20;;;1.70;99.90;;;0.74;100.00;101738.94;4919217;29;20202;-79
2022/01/16 00:38:28;;;;;;;0.20;0.20;;;1.40;99.90;;;0.76;100.00;101748.66;4901557;29;20243;-79
2022/01/16 00:40:56;;;;;;;0.20;0.20;;;1.30;99.90;;;0.78;100.00;101747.06;4901557;29;20218;-80
2022/01/16 00:43:24;;;;;;;0.20;0.20;;;1.20;99.90;;;0.76;100.00;101740.88;4886480;29;20214;-80
2022/01/16 00:45:52;;;;;;;0.20;0.20;;;1.30;99.90;;;0.76;100.00;101760.78;4917533;29;20203;-80
2022/01/16 00:48:20;;;;;;;0.20;0.20;;;1.20;99.90;;;0.76;100.00;101758.19;4900839;29;20594;-79
2022/01/16 00:50:47;;;;;;;0.13;0.13;;;1.30;99.90;;;0.73;100.00;101758.88;4914009;29;20209;-79
2022/01/16 00:53:15;;;;;;;0.10;0.10;;;1.80;99.90;;;0.70;100.00;101761.28;4919948;29;20257;-79
2022/01/16 00:55:44;;;;;;;0.10;0.10;;;1.40;99.90;;;0.67;100.00;101774.06;4924115;28;20209;-79
2022/01/16 00:58:12;;;;;;;0.10;0.10;;;1.50;99.90;;;0.71;100.00;101773.50;4931207;29;20231;-79
2022/01/16 01:00:40;;;;;;;0.20;0.20;;;1.20;99.90;;;0.68;100.00;101781.09;4916184;29;20214;-79
2022/01/16 01:03:11;;;;;;;0.20;0.20;;;1.10;99.90;;;0.67;100.00;101776.69;4916543;29;20219;-80
2022/01/16 01:05:39;;;;;;;0.20;0.20;;;1.40;99.90;;;0.70;100.00;101789.91;4914655;29;20223;-79
2022/01/16 01:08:08;;;;;;;0.20;0.20;;;1.10;99.90;;;0.66;100.00;101771.34;4911973;29;20234;-79
2022/01/16 01:10:39;;;;;;;0.10;0.10;;;1.10;99.90;;;0.66;100.00;101785.28;4898819;29;20211;-79
2022/01/16 01:13:20;;;;;;;0.20;0.20;;;1.20;99.90;;;0.64;100.00;101766.94;4900698;29;20226;-80
2022/01/16 01:15:58;;;;;;;0.30;0.30;;;1.50;99.90;;;0.65;100.00;101775.66;4901784;29;20222;-79
2022/01/16 01:18:27;;;;;;;0.20;0.20;;;1.10;99.90;;;0.71;100.00;101762.16;4914294;29;20241;-79
2022/01/16 01:20:57;;;;;;;0.20;0.20;;;1.20;99.90;;;0.69;100.00;101756.84;4901771;29;20202;-79
2022/01/16 01:23:27;;;;;;;0.30;0.30;;;1.20;99.90;;;0.68;100.00;101747.25;4901272;29;20210;-79
2022/01/16 01:25:55;;;;;;;0.20;0.20;;;1.20;99.90;;;0.66;100.00;101680.25;4901654;29;20592;-79
2022/01/16 01:28:23;;;;;;;0.30;0.30;;;1.60;99.90;;;0.67;100.00;101676.84;4900974;29;20246;-79
2022/01/16 01:30:51;;;;;;;0.30;0.30;;;1.20;99.90;;;0.68;100.00;101673.44;4943688;28;20210;-79
2022/01/16 01:33:23;;;;;;;0.20;0.20;;;1.50;99.90;;;0.66;100.00;101675.94;4899254;29;20226;-78
2022/01/16 01:35:51;;;;;;;0.20;0.20;;;1.10;99.90;;;0.66;100.00;101667.22;4899834;29;20207;-79
2022/01/16 01:38:20;;;;;;;1.75;1.48;;;1.10;99.90;;;0.64;100.00;101683.63;4929550;29;20763;-80
2022/01/16 01:40:49;;;;;;;0.20;0.20;;;1.10;99.90;;;0.67;100.00;101711.59;4921323;29;20206;-79
2022/01/16 01:51:44;;;;;;;0.20;0.20;;;1.10;99.90;;;0.71;100.00;101755.25;4953701;28;20217;-79
2022/01/16 01:54:14;;;;;;;0.40;0.40;;;1.20;99.90;;;0.70;100.00;101745.66;4929270;29;20712;-79
2022/01/16 01:56:42;;;;;;;0.20;0.20;;;1.10;99.90;;;0.72;100.00;101761.38;4900527;29;20202;-79
2022/01/16 01:59:11;;;;;;;0.20;0.20;;;1.10;99.90;;;0.71;100.00;101756.97;4899776;29;20226;-79
2022/01/16 02:01:39;;;;;;;0.40;0.40;;;1.30;99.90;;;0.71;100.00;101754.34;4916684;29;20218;-79
2022/01/16 02:04:07;;;;;;;0.20;0.20;;;1.30;99.90;;;0.69;100.00;101756.84;4902427;29;20245;-79
2022/01/16 02:06:35;;;;;;;0.40;0.40;;;1.20;99.90;;;0.71;100.00;101767.38;4918286;29;20223;-79
2022/01/16 02:09:07;;;;;;;0.20;0.20;;;1.60;99.90;;;0.67;100.00;101763.66;4889704;29;20237;-79
2022/01/16 02:11:35;;;;;;;0.20;0.20;;;1.60;99.90;;;0.69;100.00;101764.66;4922455;29;20210;-80
2022/01/16 02:28:22;;;;;;;0.20;0.20;;;1.10;99.90;;;0.64;100.00;101750.44;4929805;29;20258;-79
2022/01/16 02:31:03;;;;;;;0.68;0.68;;;1.10;99.90;;;0.65;100.00;101749.63;4923799;29;20214;-79
2022/01/16 02:36:49;;;;;;;0.20;0.20;;;1.10;99.90;;;0.66;100.00;101742.72;4922993;29;20198;-79
2022/01/16 02:39:17;;;;;;;0.28;0.28;;;1.10;99.90;;;0.66;100.00;101737.50;4905547;29;20245;-79
2022/01/16 02:41:47;;;;;;;0.10;0.10;;;1.10;99.90;;;0.64;100.00;101737.41;4921860;29;20202;-79
2022/01/16 02:46:46;;;;;;;2.20;1.77;;;1.10;99.90;;;0.61;100.00;101726.78;4922739;29;20213;-80
2022/01/16 02:49:23;;;;;;;0.22;0.22;;;1.10;99.90;;;0.62;100.00;101726.88;4907146;29;20230;-80
2022/01/16 02:51:56;;;;;;;0.30;0.30;;;1.10;99.90;;;0.63;100.00;101738.22;4944349;29;20221;-80
2022/01/16 02:54:27;;;;;;;0.10;0.10;;;1.10;99.90;;;0.59;100.00;101726.69;4932708;29;20249;-80
2022/01/16 02:56:55;;;;;;;0.20;0.20;;;1.00;99.90;;;0.57;100.00;101712.66;4907338;29;20225;-79
2022/01/16 02:59:23;;;;;;;0.10;0.10;;;1.00;99.90;;;0.56;100.00;101700.44;4921933;29;20237;-79
2022/01/16 03:01:51;;;;;;;0.40;0.40;;;1.00;99.90;;;0.56;100.00;101700.44;4915072;29;20203;-79
2022/01/16 03:04:20;;;;;;;0.20;0.20;;;1.00;99.90;;;0.54;100.00;101702.03;4905244;29;20237;-79
2022/01/16 03:06:48;;;;;;;0.20;0.20;;;1.00;99.90;;;0.55;100.00;101705.53;4936952;29;20218;-79
2022/01/16 03:09:17;;;;;;;0.20;0.20;;;1.00;99.90;;;0.52;100.00;101703.63;4919709;29;20242;-79
2022/01/16 03:11:47;;;;;;;0.20;0.20;;;1.00;99.90;;;0.48;100.00;101708.50;4903766;29;20218;-80
2022/01/16 03:14:24;;;;;;;0.30;0.30;;;0.90;99.90;;;0.41;100.00;101707.19;4944555;29;20233;-79
2022/01/16 03:16:53;;;;;;;0.40;0.40;;;0.90;99.90;;;0.40;100.00;101701.88;4924206;29;20217;-79
2022/01/16 03:22:08;;;;;;;0.30;0.30;;;0.80;99.90;;;0.35;100.00;101703.25;4919371;29;20210;-79
2022/01/16 03:24:44;;;;;;;1.65;1.65;;;0.80;99.90;;;0.32;100.00;101690.94;4930426;29;20211;-79
2022/01/16 03:27:18;;;;;;;0.20;0.20;;;0.80;99.90;;;0.34;100.00;101686.72;4924136;29;20233;-79
2022/01/16 03:29:52;;;;;;;0.20;0.20;;;0.80;99.90;;;0.31;100.00;101690.03;4907369;29;20232;-79
2022/01/16 03:32:22;;;;;;;0.20;0.20;;;0.80;99.90;;;0.25;100.00;101688.69;4913565;29;20214;-79
2022/01/16 03:34:50;;;;;;;0.20;0.20;;;0.70;99.90;;;0.24;100.00;101679.09;4928154;29;20225;-79
2022/01/16 03:37:19;;;;;;;0.20;0.20;;;0.70;99.90;;;0.17;100.00;101676.84;4903590;29;20223;-79
2022/01/16 03:39:50;;;;;;;0.30;0.30;;;0.70;99.90;;;0.14;100.00;101680.13;4915238;23;20242;-84
2022/01/16 03:42:25;;;;;;;4.90;2.50;;;0.60;99.90;;;0.12;100.00;101671.31;4914906;29;20211;-84
2022/01/16 03:44:53;;;;;;;0.30;0.30;;;0.60;99.90;;;0.10;100.00;101667.72;4887147;29;20207;-83
2022/01/16 03:47:21;;;;;;;1.85;1.75;;;0.60;99.90;;;-0.02;100.00;101656.41;4871558;29;20208;-83
2022/01/16 03:49:49;;;;;;;0.93;0.93;;;0.50;99.90;;;-0.01;100.00;101669.53;4904768;29;20243;-83
2022/01/16 03:52:18;;;;;;;0.25;0.25;;;0.50;99.90;;;-0.05;100.00;101675.31;4876452;29;20214;-83
2022/01/16 03:54:45;;;;;;;0.40;0.40;;;0.40;99.90;;;-0.02;100.00;101672.00;4886914;29;20258;-84
2022/01/16 03:57:14;;;;;;;0.30;0.30;;;0.50;99.90;;;-0.03;100.00;101665.91;4884964;29;20222;-83
2022/01/16 03:59:42;;;;;;;0.30;0.30;;;0.50;99.90;;;0.02;100.00;101671.47;4867400;29;20230;-83
2022/01/16 04:02:10;;;;;;;0.30;0.30;;;0.40;99.90;;;-0.03;100.00;101662.41;4884042;29;20219;-83
2022/01/16 04:04:39;;;;;;;0.30;0.30;;;0.50;99.90;;;-0.05;100.00;101667.50;4914196;29;20219;-83
2022/01/16 04:07:08;;;;;;;0.25;0.25;;;0.40;99.90;;;-0.03;100.00;101673.72;4898623;29;20216;-84
2022/01/16 04:09:37;;;;;;;0.40;0.40;;;0.40;99.90;;;-0.08;100.00;101674.19;4884370;29;20224;-83
2022/01/16 04:12:07;;;;;;;0.30;0.30;;;0.40;99.90;;;-0.10;100.00;101670.56;4888965;29;20210;-83
2022/01/16 04:17:20;;;;;;;0.30;0.30;;;0.40;99.90;;;-0.15;100.00;101670.25;4909505;29;20230;-83
2022/01/16 04:19:51;;;;;;;0.57;0.57;;;0.30;99.90;;;-0.17;100.00;101669.22;4901784;29;20227;-83
2022/01/16 04:22:20;;;;;;;0.30;0.30;;;0.30;99.90;;;-0.22;100.00;101662.78;4885594;29;20219;-83
2022/01/16 04:24:48;;;;;;;0.30;0.30;;;0.30;99.90;;;-0.24;100.00;101655.69;4886214;29;20689;-84
2022/01/16 04:27:17;;;;;;;0.38;0.38;;;0.30;99.90;;;-0.23;100.00;101662.69;4918321;29;20226;-83
2022/01/16 04:29:45;;;;;;;0.20;0.20;;;0.20;99.90;;;-0.18;100.00;101671.72;4890373;29;20226;-83
2022/01/16 04:32:13;;;;;;;0.30;0.30;;;0.20;99.90;;;-0.22;100.00;101662.78;4906324;29;20215;-83
2022/01/16 04:34:41;;;;;;;0.20;0.20;;;0.20;99.90;;;-0.18;100.00;101669.13;4908776;29;20249;-83
2022/01/16 04:37:09;;;;;;;0.40;0.40;;;0.30;99.90;;;-0.23;100.00;101666.19;4885206;29;20218;-83
2022/01/16 04:39:37;;;;;;;0.80;0.80;;;0.30;99.90;;;-0.24;100.00;101663.47;4878204;29;20239;-84
2022/01/16 04:44:53;;;;;;;0.30;0.30;;;0.20;99.90;;;-0.23;100.00;101674.00;4891408;29;20207;-83
2022/01/16 04:47:21;;;;;;;0.30;0.30;;;0.20;99.90;;;-0.27;100.00;101663.25;4902584;29;20215;-83
2022/01/16 04:49:49;;;;;;;0.30;0.30;;;0.20;99.90;;;-0.27;100.00;101671.97;4882768;29;20309;-83
2022/01/16 04:52:17;;;;;;;0.30;0.30;;;0.20;99.90;;;-0.34;100.00;101646.31;4883548;29;20227;-83
2022/01/16 04:54:45;;;;;;;0.30;0.30;;;0.20;99.90;;;-0.32;100.00;101655.13;4897600;29;20227;-83
2022/01/16 04:57:13;;;;;;;0.30;0.30;;;0.20;99.90;;;-0.32;100.00;101658.63;4884789;29;20667;-83
2022/01/16 04:59:41;;;;;;;0.20;0.20;;;0.20;99.90;;;-0.34;100.00;101651.53;4886901;29;20228;-83
2022/01/16 05:02:09;;;;;;;0.40;0.40;;;0.20;99.90;;;-0.34;100.00;101654.13;4896463;29;20230;-83
2022/01/16 05:04:38;;;;;;;0.30;0.30;;;0.20;99.90;;;-0.37;100.00;101656.50;4899254;29;20211;-83
2022/01/16 05:07:06;;;;;;;0.30;0.30;;;0.10;99.90;;;-0.39;100.00;101652.88;4900489;29;20219;-83
2022/01/16 05:09:34;;;;;;;0.40;0.40;;;0.10;99.90;;;-0.37;100.00;101665.19;4907482;29;20215;-83
2022/01/16 05:12:08;;;;;;;0.32;0.32;;;0.10;99.90;;;-0.36;100.00;101672.19;4879451;29;20208;-83
2022/01/16 05:17:22;;;;;;;0.40;0.40;;;0.10;99.90;;;-0.36;100.00;101669.59;4907822;29;20218;-84
2022/01/16 05:19:50;;;;;;;0.20;0.20;;;0.10;99.90;;;-0.43;100.00;101671.66;4918175;29;20223;-83
2022/01/16 05:22:18;;;;;;;0.30;0.30;;;0.10;99.90;;;-0.45;100.00;101674.13;4880743;29;20203;-84
2022/01/16 05:24:47;;;;;;;0.47;0.47;;;0.00;99.90;;;-0.46;100.00;101679.22;4898953;29;20783;-84
2022/01/16 05:27:15;;;;;;;0.35;0.35;;;0.10;99.90;;;-0.42;100.00;101681.25;4885795;29;20211;-84
2022/01/16 05:29:43;;;;;;;0.40;0.40;;;0.00;99.90;;;-0.42;100.00;101670.84;4893108;29;20238;-83
2022/01/16 05:32:15;;;;;;;0.35;0.35;;;0.10;99.90;;;-0.38;100.00;101670.28;4900340;29;20608;-84
2022/01/16 05:34:43;;;;;;;0.30;0.30;;;0.10;99.90;;;-0.37;100.00;101679.88;4904815;29;20226;-83
2022/01/16 05:37:12;;;;;;;0.38;0.38;;;0.10;99.90;;;-0.38;100.00;101680.69;4900911;29;20239;-84
2022/01/16 05:39:40;;;;;;;0.50;0.50;;;0.10;99.90;;;-0.37;100.00;101682.50;4894169;29;20242;-84
2022/01/16 05:42:10;;;;;;;0.30;0.30;;;0.10;99.90;;;-0.37;100.00;101690.28;4905272;29;20218;-84
2022/01/16 05:44:39;;;;;;;0.35;0.35;;;0.10;99.90;;;-0.35;100.00;101693.91;4893281;29;20692;-83
2022/01/16 05:47:12;;;;;;;0.38;0.38;;;0.10;99.90;;;-0.33;100.00;101711.41;4905749;29;20218;-84
2022/01/16 05:49:41;;;;;;;0.30;0.30;;;0.10;99.90;;;-0.37;100.00;101701.59;4906187;29;20233;-84
2022/01/16 05:52:09;;;;;;;0.50;0.50;;;0.10;99.90;;;-0.36;100.00;101705.09;4899200;29;20212;-83
2022/01/16 05:54:37;;;;;;;0.40;0.40;;;0.10;99.90;;;-0.34;100.00;101708.69;4884061;29;20208;-83
2022/01/16 05:57:05;;;;;;;0.50;0.50;;;0.10;99.90;;;-0.40;100.00;101703.97;4881002;29;20223;-83
2022/01/16 05:59:33;;;;;;;0.55;0.55;;;0.10;99.90;;;-0.43;100.00;101713.22;4890092;29;20231;-83
2022/01/16 06:02:02;;;;;;;0.50;0.50;;;0.10;99.90;;;-0.42;100.00;101715.94;4884461;29;20215;-83
2022/01/16 06:04:30;;;;;;;0.40;0.40;;;0.10;99.90;;;-0.40;100.00;101724.75;4888853;29;20211;-83
2022/01/16 06:06:59;;;;;;;0.50;0.50;;;0.10;99.90;;;-0.42;100.00;101730.63;4899685;29;20211;-84
2022/01/16 06:09:27;;;;;;;0.50;0.50;;;0.00;99.90;;;-0.43;100.00;101724.53;4885122;29;20235;-83
2022/01/16 06:11:55;;;;;;;0.60;0.60;;;0.00;99.90;;;-0.41;100.00;101722.94;4897807;29;20215;-83
2022/01/16 06:14:24;;;;;;;0.60;0.60;;;0.00;99.90;;;-0.43;100.00;101729.72;4888719;29;20221;-83
2022/01/16 06:16:52;;;;;;;0.50;0.50;;;0.00;99.90;;;-0.39;100.00;101723.97;4902534;29;20231;-84
2022/01/16 06:19:20;;;;;;;0.90;0.75;;;0.00;99.90;;;-0.40;100.00;101714.34;4875487;29;20231;-83
2022/01/16 06:21:49;;;;;;;0.57;0.50;;;0.90;99.90;;;-0.39;100.00;101716.16;4909736;29;20215;-84
2022/01/16 06:24:17;;;;;;;0.70;0.70;;;0.10;99.90;;;-0.38;100.00;101724.88;4886554;29;20227;-84
2022/01/16 06:26:45;;;;;;;0.80;0.73;;;0.10;99.90;;;-0.40;100.00;101740.34;4907790;29;20207;-84
2022/01/16 06:29:13;;;;;;;0.30;0.30;;;0.10;99.90;;;-0.38;100.00;101746.56;4900797;29;20227;-84
2022/01/16 06:31:40;;;;;;;0.50;0.50;;;0.00;99.90;;;-0.38;100.00;101743.97;4906317;29;20252;-84
2022/01/16 06:34:09;;;;;;;0.50;0.50;;;0.10;99.90;;;-0.37;100.00;101753.56;4897722;29;20220;-84
2022/01/16 06:36:37;;;;;;;0.50;0.50;;;0.10;99.90;;;-0.37;100.00;101755.25;4893597;29;20229;-84
2022/01/16 06:39:09;;;;;;;0.40;0.40;;;0.10;99.90;;;-0.36;100.00;101757.97;4904531;29;20231;-84
2022/01/16 06:41:37;;;;;;;0.57;0.57;;;0.10;99.90;;;-0.35;100.00;101749.38;4893234;29;20701;-84
2022/01/16 06:44:07;;;;;;;0.82;0.80;;;0.10;99.90;;;-0.35;100.00;101759.78;4875137;29;20207;-83
2022/01/16 06:46:35;;;;;;;0.50;0.50;;;0.10;99.90;;;-0.34;100.00;101769.38;4885119;29;20219;-83
2022/01/16 06:49:03;;;;;;;0.85;0.70;;;0.10;99.90;;;-0.34;100.00;101779.78;4880083;29;20714;-84
2022/01/16 06:51:31;;;;;;;0.50;0.50;;;0.10;99.90;;;-0.29;100.00;101782.72;4914119;29;20203;-84
2022/01/16 06:57:51;;;;;;;0.60;0.60;;;0.10;99.90;;;-0.27;100.00;101801.03;4914159;29;20235;-83
2022/01/16 07:00:19;;;;;;;0.90;0.90;;;0.20;99.90;;;-0.24;100.00;101802.16;4895392;29;20597;-83
2022/01/16 07:02:47;;;;;;;0.30;0.30;;;0.20;99.90;;;-0.21;100.00;101807.59;4881712;29;20219;-84
2022/01/16 07:05:15;;;;;;;0.75;0.75;;;0.20;99.90;;;-0.13;100.00;101821.16;4883918;29;20202;-83
2022/01/16 07:07:44;;;;;;;0.30;0.30;;;0.20;99.90;;;-0.07;100.00;101832.91;4871944;29;20215;-84
2022/01/16 07:10:12;;;;;;;2.22;2.17;;;0.20;99.90;;;-0.04;100.00;101832.22;4879072;29;20234;-83
2022/01/16 07:12:40;;;;;;;0.28;0.28;;;0.20;99.90;;;-0.06;100.00;101834.72;4887472;29;20208;-82
2022/01/16 07:15:09;;;;;;;0.30;0.30;;;0.30;99.90;;;-0.06;100.00;101831.22;4904823;29;20218;-82
2022/01/16 07:17:37;;;;;;;0.30;0.30;;;0.30;99.90;;;-0.03;100.00;101847.03;4887183;29;20223;-82
2022/01/16 07:20:06;;;;;;;0.30;0.30;;;0.30;99.90;;;-0.05;100.00;101839.13;4894479;29;20229;-82
2022/01/16 07:22:33;;;;;;;0.30;0.30;;;0.30;99.90;;;-0.04;100.00;101840.94;4870314;29;20200;-83
2022/01/16 07:25:02;;;;;;;0.30;0.30;;;0.30;99.90;;;-0.05;100.00;101851.22;4898405;29;20208;-82
2022/01/16 07:27:30;;;;;;;0.47;0.47;;;0.30;99.90;;;-0.07;100.00;101868.41;4891281;29;20214;-82
2022/01/16 07:29:58;;;;;;;0.20;0.20;;;0.30;99.90;;;-0.07;100.00;101876.22;4896972;29;20227;-82
2022/01/16 07:32:27;;;;;;;0.30;0.30;;;0.30;99.90;;;-0.05;100.00;101887.63;4904173;29;20207;-82
2022/01/16 07:34:55;;;;;;;0.30;0.30;;;0.30;99.90;;;-0.04;100.00;101886.84;4880525;29;20230;-82
2022/01/16 07:37:23;;;;;;;0.30;0.30;;;0.30;99.90;;;-0.05;100.00;101882.44;4871972;29;20682;-82
2022/01/16 07:39:51;;;;;;;0.30;0.30;;;0.30;99.90;;;-0.06;100.00;101876.34;4889375;29;20235;-82
2022/01/16 07:42:19;;;;;;;0.40;0.40;;;0.30;99.90;;;-0.05;100.00;101883.34;4911285;29;20216;-82
2022/01/16 07:44:47;;;;;;;0.30;0.30;;;0.30;99.90;;;-0.02;100.00;101900.88;4885674;29;20207;-83
2022/01/16 07:47:16;;;;;;;0.30;0.30;;;0.30;99.90;;;-0.01;100.00;101906.19;4877042;29;20211;-83
2022/01/16 07:49:44;;;;;;;0.20;0.20;;;0.30;99.90;;;-0.04;100.00;101882.53;4874552;29;20238;-82
2022/01/16 07:52:12;;;;;;;0.25;0.25;;;0.30;99.90;;;-0.01;100.00;101893.19;4911591;29;20217;-83
2022/01/16 07:54:40;;;;;;;0.30;0.30;;;0.30;99.90;;;-0.02;100.00;101891.38;4909123;29;20211;-83
2022/01/16 07:57:09;;;;;;;0.30;0.30;;;0.30;99.90;;;0.03;100.00;101898.66;4911879;29;20224;-83
2022/01/16 07:59:37;;;;;;;0.20;0.20;;;0.40;99.90;;;0.03;100.00;101896.94;4895299;29;20227;-83
2022/01/16 08:02:06;;;;;;;0.20;0.20;;;0.40;99.90;;;-0.01;100.00;101900.97;4876003;29;20204;-83
2022/01/16 08:04:34;;;;;;;0.30;0.30;;;0.40;99.90;;;0.03;100.00;101899.56;4908071;29;20198;-83
2022/01/16 08:07:03;;;;;;;0.20;0.20;;;0.40;99.90;;;0.08;100.00;101908.59;4906616;29;20215;-82
2022/01/16 08:09:32;;;;;;;1.48;1.48;;;0.40;99.90;;;0.04;100.00;101900.47;4907164;29;20237;-82
2022/01/16 08:12:00;;;;;;;0.20;0.20;;;0.40;99.90;;;0.07;100.00;101903.28;4915554;29;20213;-81
2022/01/16 08:15:01;;;;;;;0.25;0.25;;;0.40;99.90;;;0.07;100.00;101905.88;4931988;29;20595;-83
2022/01/16 08:17:45;;;;;;;0.20;0.20;;;0.40;99.90;;;0.08;100.00;101910.28;4898042;29;20226;-84
2022/01/16 08:20:17;;;;;;;0.20;0.20;;;0.50;99.90;;;0.08;100.00;101908.59;4922627;29;20241;-85
2022/01/16 08:22:56;;;;;;;0.20;0.20;;;0.40;99.90;;;0.09;100.00;101907.81;4905723;29;20194;-84
2022/01/16 08:26:04;;;;;;;0.30;0.30;;;0.50;99.90;;;0.09;100.00;101907.81;4915924;29;20215;-83
2022/01/16 08:28:32;;;;;;;0.30;0.30;;;0.50;99.90;;;0.10;100.00;101917.41;4923146;29;20238;-83
2022/01/16 08:31:18;;;;;;;0.20;0.20;;;0.40;99.90;;;0.11;100.00;101918.31;4906884;29;20212;-84
2022/01/16 08:33:47;;;;;;;0.20;0.20;;;0.40;99.90;;;0.11;100.00;101923.53;4940956;29;20218;-83
2022/01/16 08:36:16;;;;;;;0.30;0.30;;;0.50;99.90;;;0.13;100.00;101922.84;4910691;29;20222;-83
2022/01/16 08:38:45;;;;;;;0.30;0.30;;;0.50;99.90;;;0.13;100.00;101915.03;4885527;29;20713;-83
2022/01/16 08:41:13;;;;;;;0.20;0.20;;;0.40;99.90;;;0.13;100.00;101915.03;4884246;29;20219;-83
2022/01/16 08:43:46;;;;;;;0.20;0.20;;;0.50;99.90;;;0.15;100.00;101916.06;4895833;29;20213;-83
2022/01/16 08:46:15;;;;;;;0.20;0.20;;;0.50;99.90;;;0.16;100.00;101923.09;4886067;29;20215;-83
2022/01/16 08:48:43;;;;;;;0.30;0.30;;;0.50;99.90;;;0.18;100.00;101918.91;4868721;29;20230;-83
2022/01/16 08:51:11;;;;;;;0.28;0.28;;;0.50;99.90;;;0.17;100.00;101931.78;4879580;29;20212;-83
2022/01/16 08:53:40;;;;;;;0.20;0.20;;;0.50;99.90;;;0.19;100.00;101925.91;4879905;29;20211;-83
2022/01/16 08:56:10;;;;;;;0.30;0.30;;;0.50;99.90;;;0.23;100.00;101934.84;4871580;29;20218;-82
2022/01/16 08:58:41;;;;;;;0.30;0.30;;;0.60;99.90;;;0.21;100.00;101924.31;4889843;29;20242;-83
2022/01/16 09:01:22;;;;;;;0.35;0.35;;;0.60;99.90;;;0.23;100.00;101933.16;4894206;29;20216;-84
2022/01/16 09:03:55;;;;;;;0.32;0.32;;;0.60;99.90;;;0.30;100.00;101938.00;4892066;29;20218;-84
2022/01/16 09:06:23;;;;;;;0.30;0.30;;;0.70;99.90;;;0.30;100.00;101937.09;4890719;29;20586;-83
2022/01/16 09:08:51;;;;;;;0.30;0.30;;;0.70;99.90;;;0.32;100.00;101945.94;4884280;29;20231;-83
2022/01/16 09:11:23;;;;;;;0.30;0.30;;;0.70;99.90;;;0.30;100.00;101945.81;4884917;29;20208;-83
2022/01/16 09:13:53;;;;;;;0.30;0.30;;;0.70;99.90;;;0.31;100.00;101942.44;4865607;29;20211;-84
2022/01/16 09:16:23;;;;;;;0.20;0.20;;;0.70;99.90;;;0.35;100.00;101955.66;4920820;29;20217;-83
2022/01/16 09:18:52;;;;;;;0.30;0.30;;;0.70;99.90;;;0.36;100.00;101952.25;4898348;29;20227;-85
2022/01/16 09:21:20;;;;;;;0.20;0.20;;;0.70;99.90;;;0.35;100.00;101958.25;4884888;29;20227;-83
2022/01/16 09:24:17;;;;;;;0.20;0.20;;;0.70;99.90;;;0.36;100.00;101949.66;4874988;29;20200;-84
2022/01/16 09:26:45;;;;;;;0.30;0.30;;;0.70;99.90;;;0.38;100.00;101955.88;4877019;29;20293;-84
2022/01/16 09:29:13;;;;;;;0.60;0.60;;;0.80;99.90;;;0.43;100.00;101971.06;4902880;29;20309;-83
2022/01/16 09:31:41;;;;;;;0.20;0.20;;;0.80;99.90;;;0.43;100.00;101977.97;4886087;29;20207;-83
2022/01/16 09:34:09;;;;;;;0.20;0.20;;;0.80;99.90;;;0.44;100.00;101964.16;4869859;29;20203;-83
2022/01/16 09:36:38;;;;;;;0.20;0.20;;;0.90;99.90;;;0.45;100.00;101968.56;4885046;29;20211;-83
2022/01/16 09:39:06;;;;;;;0.30;0.30;;;0.80;99.90;;;0.48;100.00;101981.81;4912295;23;20225;-80
2022/01/16 09:41:34;;;;;;;0.20;0.20;;;0.80;99.90;;;0.52;100.00;101981.25;4958126;28;20202;-79
2022/01/16 09:44:04;;;;;;;0.30;0.30;;;0.80;99.90;;;0.54;100.00;101993.56;4965652;28;20202;-79
2022/01/16 09:46:33;;;;;;;0.20;0.20;;;0.90;99.90;;;0.61;100.00;102000.13;4927017;28;20206;-80
2022/01/16 09:49:04;;;;;;;0.20;0.20;;;0.90;99.90;;;0.62;100.00;102000.25;4959951;28;20254;-80
2022/01/16 09:51:34;;;;;;;0.30;0.30;;;0.90;99.90;;;0.62;100.00;102001.94;4922142;29;20227;-80
2022/01/16 09:54:04;;;;;;;1.80;1.77;;;0.90;99.90;;;0.59;100.00;102000.03;4908085;29;20210;-79
2022/01/16 09:56:34;;;;;;;0.40;0.40;;;0.90;99.90;;;0.63;100.00;101998.56;4920822;29;20218;-79
2022/01/16 09:59:06;;;;;;;0.75;0.75;;;1.00;99.90;;;0.67;100.00;101999.69;4933486;28;20319;-79
2022/01/16 10:01:34;;;;;;;0.30;0.30;;;1.00;99.90;;;0.71;100.00;102007.84;4898164;29;20259;-79
2022/01/16 10:04:02;;;;;;;0.30;0.30;;;1.00;99.90;;;0.76;100.00;102001.25;4909199;29;20689;-78
2022/01/16 10:06:31;;;;;;;0.20;0.20;;;1.00;99.90;;;0.80;100.00;101994.56;4947460;28;20206;-79
2022/01/16 10:09:15;;;;;;;0.30;0.30;;;1.10;99.90;;;0.82;100.00;101995.59;4907153;29;20226;-82
2022/01/16 10:11:56;;;;;;;0.30;0.30;;;1.10;99.90;;;0.84;100.00;101989.69;4891851;29;20265;-77
2022/01/16 10:14:45;;;;;;;0.30;0.30;;;1.10;99.90;;;0.90;100.00;101989.25;4900868;29;20206;-79
2022/01/16 10:17:23;;;;;;;0.30;0.30;;;1.20;99.90;;;0.88;100.00;101990.81;4919157;29;20221;-79
2022/01/16 10:20:05;;;;;;;2.05;1.95;;;1.20;99.90;;;0.89;100.00;101979.63;4948938;28;20245;-79
2022/01/16 10:22:48;;;;;;;0.30;0.30;;;1.20;99.90;;;0.99;100.00;101976.88;4909350;29;20203;-79
2022/01/16 10:25:43;;;;;;;0.38;0.38;;;1.20;99.90;;;1.18;100.00;101979.09;4924612;29;20226;-78
2022/01/16 10:28:26;;;;;;;0.65;0.65;;;1.30;99.90;;;1.20;100.00;101975.81;4905885;29;20580;-79
2022/01/16 10:30:58;;;;;;;0.20;0.20;;;1.40;99.90;;;1.23;100.00;101976.03;4942057;28;20226;-79
2022/01/16 10:33:34;;;;;;;0.22;0.22;;;1.50;99.90;;;1.26;100.00;101978.84;4901848;29;20213;-79
2022/01/16 10:36:09;;;;;;;0.30;0.30;;;1.60;99.90;;;1.29;100.00;101966.03;4936061;29;20213;-79
2022/01/16 10:38:51;;;;;;;0.70;0.70;;;1.60;99.90;;;1.28;100.00;101966.81;4916944;29;20225;-79
2022/01/16 10:41:29;;;;;;;0.30;0.30;;;1.60;99.90;;;1.27;100.00;101961.50;4918900;29;20236;-78
2022/01/16 10:44:30;;;;;;;0.30;0.30;;;1.60;99.90;;;1.33;100.00;101964.56;4913157;29;20207;-79
2022/01/16 10:47:57;;;;;;;0.77;0.77;;;1.10;99.90;;;1.29;100.00;101954.69;4925393;29;20697;-79
2022/01/16 10:50:40;;;;;;;0.30;0.30;;;1.60;99.90;;;1.37;100.00;101965.69;4930962;29;20340;-79
2022/01/16 10:53:19;;;;;;;0.20;0.20;;;1.10;99.90;;;1.40;100.00;101969.41;4919031;29;20210;-79
2022/01/16 10:56:04;;;;;;;0.20;0.20;;;1.70;99.90;;;1.41;100.00;101966.03;4918592;29;20225;-79
2022/01/16 10:58:49;;;;;;;3.58;1.95;;;1.70;99.90;;;1.41;100.00;101963.41;4920852;29;20265;-79
2022/01/16 11:01:31;;;;;;;0.32;0.32;;;1.70;99.90;;;1.47;100.00;101963.84;4910402;29;20250;-79
2022/01/16 11:04:10;;;;;;;0.30;0.30;;;1.70;99.90;;;1.51;100.00;101963.25;4917027;29;20219;-79
2022/01/16 11:07:00;;;;;;;0.32;0.32;;;1.80;99.90;;;1.50;100.00;101966.66;4888668;29;20221;-80
2022/01/16 11:09:32;;;;;;;0.30;0.30;;;1.80;99.90;;;1.51;100.00;101955.44;4903252;29;20242;-80
2022/01/16 11:12:00;;;;;;;0.40;0.40;;;1.80;99.90;;;1.50;100.00;101952.72;4920948;29;20211;-82
2022/01/16 11:14:32;;;;;;;0.40;0.40;;;1.90;99.90;;;1.56;100.00;101948.84;4928650;29;20217;-80
2022/01/16 11:17:00;;;;;;;3.88;3.50;;;1.80;99.90;;;1.43;100.00;101938.34;4888088;29;20218;-80
2022/01/16 11:19:34;;;;;;;0.40;0.40;;;1.90;99.90;;;1.40;100.00;101938.13;4919395;29;20246;-79